메인 페이지
METAR-TAF:

METAR-TAF

공항 :

하이커우 메이란 국제공항

하이커우, 중국

위도: 19-56-05N, 경도: 110-27-32E, 고도: 23m

현재 날씨관측

예보는 22분 전, 17:00시(UTC)에 발표되었습니다.
6kt
온도 27°C
습도 89%
기압 1009 hPa
시정 10km 이상
1500m 미만 상공 구름 및 적란운 없음

METAR: ZJHK 311700Z 18003MPS CAVOK 27/25 Q1009 NOSIG

시각: 01:22 (17:22 UTC)

예보

예보는 8 시간 13분 전, 09:09시(UTC)에 발표되었습니다.
예보 대상 시간: 31일 12시부터 01일 12시까지 (UTC)
남남서8kt
시정 10km 이상
고도 2000ft 상공 구름 보통
일시적
01일 06시부터 01일 12시까지 (UTC)
10kt
고도 1500ft 상공 구름 보통
고도 2600ft 상공 구름 조금, 적란운.
뇌우, 비

TAF: ZJHK 310909Z 3112/0112 20004MPS 9999 SCT020 TX36/0107Z TN26/3121Z TEMPO 0106/0112 27005MPS TSRA SCT015 FEW026CB

4,000개 이상의 공항 관측 자료 및 예보 (METAR 및 TAF 보고).

지도상에서 검색 가능한 기상관측소가 노란 점과 빨간 점으로 표시되어 있습니다.

기상관측소 명을 보려면 표시 위로 마우스를 이동하세요.

날씨 관측과 예보를 보려면 클릭하세요.

지도 변경 : 확대하려면 엑스 표시가 있는 녹색 버튼, 축소하려면 빼기 표시가 있는 녹색 버튼, 다음 페이지의 지도를 보려면 녹색 화살표를 클릭하세요.


METAR-TAF: